sensor_id;sensor_type;location;lat;lon;timestamp;temperature;humidity
4584;DHT22;2304;47.606;12.186;2023-06-14T00:04:40;16.10;51.70
4584;DHT22;2304;47.606;12.186;2023-06-14T00:09:42;16.00;51.90
4584;DHT22;2304;47.606;12.186;2023-06-14T00:14:45;16.00;51.60
4584;DHT22;2304;47.606;12.186;2023-06-14T00:19:47;15.90;50.70
4584;DHT22;2304;47.606;12.186;2023-06-14T00:24:50;15.90;49.70
4584;DHT22;2304;47.606;12.186;2023-06-14T00:29:53;15.80;49.60
4584;DHT22;2304;47.606;12.186;2023-06-14T00:34:54;15.70;50.00
4584;DHT22;2304;47.606;12.186;2023-06-14T00:39:56;15.70;49.60
4584;DHT22;2304;47.606;12.186;2023-06-14T00:45:00;15.50;51.90
4584;DHT22;2304;47.606;12.186;2023-06-14T00:50:02;15.40;51.20
4584;DHT22;2304;47.606;12.186;2023-06-14T00:55:05;15.40;51.50
4584;DHT22;2304;47.606;12.186;2023-06-14T01:00:10;15.40;51.20
4584;DHT22;2304;47.606;12.186;2023-06-14T01:05:12;15.40;50.60
4584;DHT22;2304;47.606;12.186;2023-06-14T01:10:29;15.30;50.40
4584;DHT22;2304;47.606;12.186;2023-06-14T01:15:34;15.30;49.90
4584;DHT22;2304;47.606;12.186;2023-06-14T01:20:36;15.20;50.80
4584;DHT22;2304;47.606;12.186;2023-06-14T01:25:39;15.20;51.20
4584;DHT22;2304;47.606;12.186;2023-06-14T01:30:47;15.00;51.70
4584;DHT22;2304;47.606;12.186;2023-06-14T01:35:51;14.90;51.60
4584;DHT22;2304;47.606;12.186;2023-06-14T01:40:56;14.90;51.90
4584;DHT22;2304;47.606;12.186;2023-06-14T01:45:58;14.90;52.30
4584;DHT22;2304;47.606;12.186;2023-06-14T01:51:01;14.80;51.60
4584;DHT22;2304;47.606;12.186;2023-06-14T01:56:05;14.80;50.70
4584;DHT22;2304;47.606;12.186;2023-06-14T02:01:06;14.70;51.10
4584;DHT22;2304;47.606;12.186;2023-06-14T02:06:08;14.60;50.80
4584;DHT22;2304;47.606;12.186;2023-06-14T02:11:12;14.70;51.00
4584;DHT22;2304;47.606;12.186;2023-06-14T02:16:14;14.60;50.70
4584;DHT22;2304;47.606;12.186;2023-06-14T02:21:17;14.60;50.80
4584;DHT22;2304;47.606;12.186;2023-06-14T02:26:21;14.60;51.10
4584;DHT22;2304;47.606;12.186;2023-06-14T02:31:23;14.50;51.30
4584;DHT22;2304;47.606;12.186;2023-06-14T02:36:24;14.40;51.50
4584;DHT22;2304;47.606;12.186;2023-06-14T02:41:28;14.30;51.80
4584;DHT22;2304;47.606;12.186;2023-06-14T02:46:30;14.20;53.10
4584;DHT22;2304;47.606;12.186;2023-06-14T02:51:32;14.20;53.00
4584;DHT22;2304;47.606;12.186;2023-06-14T02:56:35;14.20;52.60
4584;DHT22;2304;47.606;12.186;2023-06-14T03:01:37;14.20;52.60
4584;DHT22;2304;47.606;12.186;2023-06-14T03:06:39;14.10;52.40
4584;DHT22;2304;47.606;12.186;2023-06-14T03:11:42;14.10;52.60
4584;DHT22;2304;47.606;12.186;2023-06-14T03:16:44;14.00;52.80
4584;DHT22;2304;47.606;12.186;2023-06-14T03:21:46;14.00;53.10
4584;DHT22;2304;47.606;12.186;2023-06-14T03:26:49;13.90;52.80
4584;DHT22;2304;47.606;12.186;2023-06-14T03:31:58;13.90;53.00
4584;DHT22;2304;47.606;12.186;2023-06-14T03:37:00;13.80;53.10
4584;DHT22;2304;47.606;12.186;2023-06-14T03:42:04;13.80;53.10
4584;DHT22;2304;47.606;12.186;2023-06-14T03:47:07;13.80;53.60
4584;DHT22;2304;47.606;12.186;2023-06-14T03:52:09;13.80;53.60
4584;DHT22;2304;47.606;12.186;2023-06-14T03:57:12;13.80;53.60
4584;DHT22;2304;47.606;12.186;2023-06-14T04:02:14;13.70;53.60
4584;DHT22;2304;47.606;12.186;2023-06-14T04:07:16;13.70;54.30
4584;DHT22;2304;47.606;12.186;2023-06-14T04:12:21;13.80;54.10
4584;DHT22;2304;47.606;12.186;2023-06-14T04:17:23;13.90;54.80
4584;DHT22;2304;47.606;12.186;2023-06-14T04:22:25;13.90;55.30
4584;DHT22;2304;47.606;12.186;2023-06-14T04:27:29;13.90;55.00
4584;DHT22;2304;47.606;12.186;2023-06-14T04:32:35;13.90;55.20
4584;DHT22;2304;47.606;12.186;2023-06-14T04:37:39;13.90;55.10
4584;DHT22;2304;47.606;12.186;2023-06-14T04:42:43;14.00;54.80
4584;DHT22;2304;47.606;12.186;2023-06-14T04:47:45;14.00;55.70
4584;DHT22;2304;47.606;12.186;2023-06-14T04:52:47;13.90;54.40
4584;DHT22;2304;47.606;12.186;2023-06-14T04:57:53;14.00;54.70
4584;DHT22;2304;47.606;12.186;2023-06-14T05:02:55;14.00;53.80
4584;DHT22;2304;47.606;12.186;2023-06-14T05:07:57;14.10;53.40
4584;DHT22;2304;47.606;12.186;2023-06-14T05:13:00;14.20;53.40
4584;DHT22;2304;47.606;12.186;2023-06-14T05:18:02;14.40;53.30
4584;DHT22;2304;47.606;12.186;2023-06-14T05:23:04;14.40;53.50
4584;DHT22;2304;47.606;12.186;2023-06-14T05:28:07;14.50;53.80
4584;DHT22;2304;47.606;12.186;2023-06-14T05:33:09;14.60;52.60
4584;DHT22;2304;47.606;12.186;2023-06-14T05:38:11;14.90;53.60
4584;DHT22;2304;47.606;12.186;2023-06-14T05:43:14;15.20;53.30
4584;DHT22;2304;47.606;12.186;2023-06-14T05:48:16;15.40;53.00
4584;DHT22;2304;47.606;12.186;2023-06-14T05:53:17;15.60;51.90
4584;DHT22;2304;47.606;12.186;2023-06-14T05:58:21;15.80;51.80
4584;DHT22;2304;47.606;12.186;2023-06-14T06:03:23;16.00;51.60
4584;DHT22;2304;47.606;12.186;2023-06-14T06:08:25;16.20;51.30
4584;DHT22;2304;47.606;12.186;2023-06-14T06:13:28;17.00;57.70
4584;DHT22;2304;47.606;12.186;2023-06-14T06:18:30;17.40;55.20
4584;DHT22;2304;47.606;12.186;2023-06-14T06:23:32;17.70;52.10
4584;DHT22;2304;47.606;12.186;2023-06-14T06:28:35;17.90;51.00
4584;DHT22;2304;47.606;12.186;2023-06-14T06:33:37;18.30;52.50
4584;DHT22;2304;47.606;12.186;2023-06-14T06:38:40;18.50;49.70
4584;DHT22;2304;47.606;12.186;2023-06-14T06:43:43;18.70;49.30
4584;DHT22;2304;47.606;12.186;2023-06-14T06:48:45;19.00;49.20
4584;DHT22;2304;47.606;12.186;2023-06-14T06:53:52;19.20;47.90
4584;DHT22;2304;47.606;12.186;2023-06-14T06:58:55;19.50;48.40
4584;DHT22;2304;47.606;12.186;2023-06-14T07:03:57;19.90;49.10
4584;DHT22;2304;47.606;12.186;2023-06-14T07:09:00;20.00;45.60
4584;DHT22;2304;47.606;12.186;2023-06-14T07:14:03;20.30;46.10
4584;DHT22;2304;47.606;12.186;2023-06-14T07:19:05;20.40;43.80
4584;DHT22;2304;47.606;12.186;2023-06-14T07:24:07;20.70;46.00
4584;DHT22;2304;47.606;12.186;2023-06-14T07:29:10;20.90;43.80
4584;DHT22;2304;47.606;12.186;2023-06-14T07:34:12;21.00;43.80
4584;DHT22;2304;47.606;12.186;2023-06-14T07:39:14;21.30;44.70
4584;DHT22;2304;47.606;12.186;2023-06-14T07:44:17;21.50;44.10
4584;DHT22;2304;47.606;12.186;2023-06-14T07:49:19;21.60;41.60
4584;DHT22;2304;47.606;12.186;2023-06-14T07:54:21;21.70;41.10
4584;DHT22;2304;47.606;12.186;2023-06-14T07:59:27;21.90;42.10
4584;DHT22;2304;47.606;12.186;2023-06-14T08:04:29;22.10;43.80
4584;DHT22;2304;47.606;12.186;2023-06-14T08:09:31;22.50;42.00
4584;DHT22;2304;47.606;12.186;2023-06-14T08:14:34;22.50;40.70
4584;DHT22;2304;47.606;12.186;2023-06-14T08:19:36;23.00;40.60
4584;DHT22;2304;47.606;12.186;2023-06-14T08:24:38;23.30;39.50
4584;DHT22;2304;47.606;12.186;2023-06-14T08:29:42;23.60;39.00
4584;DHT22;2304;47.606;12.186;2023-06-14T08:34:44;23.90;38.00
4584;DHT22;2304;47.606;12.186;2023-06-14T08:39:46;24.10;37.30
4584;DHT22;2304;47.606;12.186;2023-06-14T08:44:49;24.30;38.00
4584;DHT22;2304;47.606;12.186;2023-06-14T08:49:51;24.40;38.50
4584;DHT22;2304;47.606;12.186;2023-06-14T08:54:56;24.60;37.90
4584;DHT22;2304;47.606;12.186;2023-06-14T09:00:00;24.70;37.10
4584;DHT22;2304;47.606;12.186;2023-06-14T09:05:10;24.90;37.20
4584;DHT22;2304;47.606;12.186;2023-06-14T09:10:15;24.90;37.00
4584;DHT22;2304;47.606;12.186;2023-06-14T09:15:18;25.00;37.20
4584;DHT22;2304;47.606;12.186;2023-06-14T09:20:21;25.30;36.80
4584;DHT22;2304;47.606;12.186;2023-06-14T09:25:25;25.60;37.10
4584;DHT22;2304;47.606;12.186;2023-06-14T09:30:29;25.60;35.70
4584;DHT22;2304;47.606;12.186;2023-06-14T09:35:31;25.80;35.70
4584;DHT22;2304;47.606;12.186;2023-06-14T09:40:34;25.90;36.40
4584;DHT22;2304;47.606;12.186;2023-06-14T09:45:39;26.10;36.30
4584;DHT22;2304;47.606;12.186;2023-06-14T09:50:41;26.20;34.50
4584;DHT22;2304;47.606;12.186;2023-06-14T09:55:44;26.20;35.40
4584;DHT22;2304;47.606;12.186;2023-06-14T10:00:47;26.40;33.90
4584;DHT22;2304;47.606;12.186;2023-06-14T10:05:52;26.50;33.70
4584;DHT22;2304;47.606;12.186;2023-06-14T10:10:55;26.60;33.20
4584;DHT22;2304;47.606;12.186;2023-06-14T10:16:05;26.60;32.50
4584;DHT22;2304;47.606;12.186;2023-06-14T10:21:22;26.80;31.40
4584;DHT22;2304;47.606;12.186;2023-06-14T10:26:29;26.70;30.90
4584;DHT22;2304;47.606;12.186;2023-06-14T10:31:42;26.90;31.40
4584;DHT22;2304;47.606;12.186;2023-06-14T10:36:44;27.00;31.10
4584;DHT22;2304;47.606;12.186;2023-06-14T10:41:53;27.10;31.40
4584;DHT22;2304;47.606;12.186;2023-06-14T10:46:59;27.20;32.00
4584;DHT22;2304;47.606;12.186;2023-06-14T10:52:03;27.10;31.50
4584;DHT22;2304;47.606;12.186;2023-06-14T10:57:07;27.20;30.10
4584;DHT22;2304;47.606;12.186;2023-06-14T11:02:27;27.20;31.00
4584;DHT22;2304;47.606;12.186;2023-06-14T11:07:48;27.10;30.00
4584;DHT22;2304;47.606;12.186;2023-06-14T11:12:55;27.30;31.50
4584;DHT22;2304;47.606;12.186;2023-06-14T11:18:00;27.30;31.10
4584;DHT22;2304;47.606;12.186;2023-06-14T11:23:03;27.30;31.70
4584;DHT22;2304;47.606;12.186;2023-06-14T11:28:05;27.20;31.80
4584;DHT22;2304;47.606;12.186;2023-06-14T11:33:10;27.20;30.70
4584;DHT22;2304;47.606;12.186;2023-06-14T11:38:13;27.00;31.60
4584;DHT22;2304;47.606;12.186;2023-06-14T11:43:15;27.10;30.90
4584;DHT22;2304;47.606;12.186;2023-06-14T11:48:19;27.20;31.80
4584;DHT22;2304;47.606;12.186;2023-06-14T11:53:21;27.30;32.10
4584;DHT22;2304;47.606;12.186;2023-06-14T11:58:22;27.30;31.00
4584;DHT22;2304;47.606;12.186;2023-06-14T12:03:26;27.40;31.00
4584;DHT22;2304;47.606;12.186;2023-06-14T12:08:33;27.40;30.90
4584;DHT22;2304;47.606;12.186;2023-06-14T12:13:40;27.30;30.80
4584;DHT22;2304;47.606;12.186;2023-06-14T12:18:43;27.30;31.20
4584;DHT22;2304;47.606;12.186;2023-06-14T12:23:47;27.50;31.00
4584;DHT22;2304;47.606;12.186;2023-06-14T12:28:49;27.50;30.70
4584;DHT22;2304;47.606;12.186;2023-06-14T12:33:52;27.50;31.60
4584;DHT22;2304;47.606;12.186;2023-06-14T12:38:54;27.60;31.40
4584;DHT22;2304;47.606;12.186;2023-06-14T12:43:56;27.70;29.70
4584;DHT22;2304;47.606;12.186;2023-06-14T12:49:01;27.50;29.70
4584;DHT22;2304;47.606;12.186;2023-06-14T12:54:03;27.50;30.10
4584;DHT22;2304;47.606;12.186;2023-06-14T12:59:05;27.80;31.40
4584;DHT22;2304;47.606;12.186;2023-06-14T13:04:09;27.70;30.40
4584;DHT22;2304;47.606;12.186;2023-06-14T13:09:11;27.70;30.30
4584;DHT22;2304;47.606;12.186;2023-06-14T13:14:13;27.70;30.20
4584;DHT22;2304;47.606;12.186;2023-06-14T13:19:17;27.60;30.00
4584;DHT22;2304;47.606;12.186;2023-06-14T13:24:18;27.50;30.30
4584;DHT22;2304;47.606;12.186;2023-06-14T13:29:20;27.60;30.40
4584;DHT22;2304;47.606;12.186;2023-06-14T13:34:23;27.70;30.20
4584;DHT22;2304;47.606;12.186;2023-06-14T13:39:25;27.90;30.20
4584;DHT22;2304;47.606;12.186;2023-06-14T13:44:27;27.80;29.30
4584;DHT22;2304;47.606;12.186;2023-06-14T13:49:30;27.70;30.10
4584;DHT22;2304;47.606;12.186;2023-06-14T13:54:32;27.70;28.70
4584;DHT22;2304;47.606;12.186;2023-06-14T13:59:34;27.70;29.20
4584;DHT22;2304;47.606;12.186;2023-06-14T14:04:37;27.80;28.80
4584;DHT22;2304;47.606;12.186;2023-06-14T14:09:39;27.70;28.90
4584;DHT22;2304;47.606;12.186;2023-06-14T14:14:43;27.60;28.70
4584;DHT22;2304;47.606;12.186;2023-06-14T14:19:46;27.40;28.70
4584;DHT22;2304;47.606;12.186;2023-06-14T14:24:48;27.40;28.80
4584;DHT22;2304;47.606;12.186;2023-06-14T14:29:50;27.50;29.20
4584;DHT22;2304;47.606;12.186;2023-06-14T14:34:53;27.50;28.90
4584;DHT22;2304;47.606;12.186;2023-06-14T14:39:55;27.40;28.80
4584;DHT22;2304;47.606;12.186;2023-06-14T14:44:57;27.40;29.70
4584;DHT22;2304;47.606;12.186;2023-06-14T14:50:00;27.40;28.80
4584;DHT22;2304;47.606;12.186;2023-06-14T14:55:03;27.50;28.20
4584;DHT22;2304;47.606;12.186;2023-06-14T15:00:06;27.40;28.60
4584;DHT22;2304;47.606;12.186;2023-06-14T15:05:09;27.40;28.70
4584;DHT22;2304;47.606;12.186;2023-06-14T15:10:12;27.30;28.70
4584;DHT22;2304;47.606;12.186;2023-06-14T15:15:13;27.40;28.70
4584;DHT22;2304;47.606;12.186;2023-06-14T15:20:17;27.20;28.40
4584;DHT22;2304;47.606;12.186;2023-06-14T15:25:18;27.10;28.50
4584;DHT22;2304;47.606;12.186;2023-06-14T15:30:22;26.80;28.00
4584;DHT22;2304;47.606;12.186;2023-06-14T15:35:25;26.70;28.30
4584;DHT22;2304;47.606;12.186;2023-06-14T15:40:29;26.70;28.10
4584;DHT22;2304;47.606;12.186;2023-06-14T15:45:31;26.70;28.20
4584;DHT22;2304;47.606;12.186;2023-06-14T15:50:34;26.60;28.20
4584;DHT22;2304;47.606;12.186;2023-06-14T15:55:36;26.50;28.60
4584;DHT22;2304;47.606;12.186;2023-06-14T16:00:38;26.40;28.40
4584;DHT22;2304;47.606;12.186;2023-06-14T16:05:41;26.30;28.30
4584;DHT22;2304;47.606;12.186;2023-06-14T16:10:43;26.10;28.40
4584;DHT22;2304;47.606;12.186;2023-06-14T16:15:45;25.90;28.40
4584;DHT22;2304;47.606;12.186;2023-06-14T16:20:48;25.90;28.40
4584;DHT22;2304;47.606;12.186;2023-06-14T16:25:50;25.70;28.70
4584;DHT22;2304;47.606;12.186;2023-06-14T16:30:52;25.50;28.80
4584;DHT22;2304;47.606;12.186;2023-06-14T16:35:55;25.30;29.80
4584;DHT22;2304;47.606;12.186;2023-06-14T16:40:58;25.10;29.30
4584;DHT22;2304;47.606;12.186;2023-06-14T16:46:00;25.00;29.40
4584;DHT22;2304;47.606;12.186;2023-06-14T16:51:03;24.90;29.80
4584;DHT22;2304;47.606;12.186;2023-06-14T16:56:06;24.80;29.80
4584;DHT22;2304;47.606;12.186;2023-06-14T17:01:07;24.70;30.30
4584;DHT22;2304;47.606;12.186;2023-06-14T17:06:11;24.60;30.40
4584;DHT22;2304;47.606;12.186;2023-06-14T17:11:12;24.50;30.70
4584;DHT22;2304;47.606;12.186;2023-06-14T17:16:15;24.50;30.60
4584;DHT22;2304;47.606;12.186;2023-06-14T17:21:18;24.30;30.70
4584;DHT22;2304;47.606;12.186;2023-06-14T17:26:20;24.20;30.60
4584;DHT22;2304;47.606;12.186;2023-06-14T17:31:22;24.10;30.70
4584;DHT22;2304;47.606;12.186;2023-06-14T17:36:25;24.00;30.90
4584;DHT22;2304;47.606;12.186;2023-06-14T17:41:27;23.90;31.00
4584;DHT22;2304;47.606;12.186;2023-06-14T17:46:30;23.90;31.40
4584;DHT22;2304;47.606;12.186;2023-06-14T17:51:33;23.90;31.90
4584;DHT22;2304;47.606;12.186;2023-06-14T17:56:35;23.80;32.20
4584;DHT22;2304;47.606;12.186;2023-06-14T18:01:37;23.80;32.10
4584;DHT22;2304;47.606;12.186;2023-06-14T18:06:40;23.70;32.50
4584;DHT22;2304;47.606;12.186;2023-06-14T18:11:42;23.70;33.90
4584;DHT22;2304;47.606;12.186;2023-06-14T18:16:44;23.70;35.00
4584;DHT22;2304;47.606;12.186;2023-06-14T18:21:47;23.60;33.60
4584;DHT22;2304;47.606;12.186;2023-06-14T18:26:49;23.60;33.70
4584;DHT22;2304;47.606;12.186;2023-06-14T18:31:52;23.50;34.20
4584;DHT22;2304;47.606;12.186;2023-06-14T18:36:55;23.50;34.60
4584;DHT22;2304;47.606;12.186;2023-06-14T18:41:58;23.40;34.10
4584;DHT22;2304;47.606;12.186;2023-06-14T18:47:00;23.30;34.00
4584;DHT22;2304;47.606;12.186;2023-06-14T18:52:04;23.20;34.50
4584;DHT22;2304;47.606;12.186;2023-06-14T18:57:07;23.10;35.00
4584;DHT22;2304;47.606;12.186;2023-06-14T19:02:09;22.90;34.80
4584;DHT22;2304;47.606;12.186;2023-06-14T19:07:12;22.90;35.60
4584;DHT22;2304;47.606;12.186;2023-06-14T19:12:14;22.80;35.20
4584;DHT22;2304;47.606;12.186;2023-06-14T19:17:16;22.70;36.00
4584;DHT22;2304;47.606;12.186;2023-06-14T19:22:19;22.60;35.20
4584;DHT22;2304;47.606;12.186;2023-06-14T19:27:21;22.40;35.20
4584;DHT22;2304;47.606;12.186;2023-06-14T19:32:23;22.30;36.40
4584;DHT22;2304;47.606;12.186;2023-06-14T19:37:26;22.40;36.90
4584;DHT22;2304;47.606;12.186;2023-06-14T19:42:28;22.30;36.20
4584;DHT22;2304;47.606;12.186;2023-06-14T19:47:30;22.20;36.50
4584;DHT22;2304;47.606;12.186;2023-06-14T19:52:33;22.10;36.60
4584;DHT22;2304;47.606;12.186;2023-06-14T19:57:35;22.00;36.50
4584;DHT22;2304;47.606;12.186;2023-06-14T20:02:37;22.00;36.60
4584;DHT22;2304;47.606;12.186;2023-06-14T20:07:40;21.90;36.60
4584;DHT22;2304;47.606;12.186;2023-06-14T20:12:42;21.90;37.90
4584;DHT22;2304;47.606;12.186;2023-06-14T20:17:44;21.90;37.60
4584;DHT22;2304;47.606;12.186;2023-06-14T20:22:48;21.90;38.30
4584;DHT22;2304;47.606;12.186;2023-06-14T20:27:49;22.00;38.40
4584;DHT22;2304;47.606;12.186;2023-06-14T20:32:51;21.90;38.50
4584;DHT22;2304;47.606;12.186;2023-06-14T20:37:54;21.80;38.10
4584;DHT22;2304;47.606;12.186;2023-06-14T20:42:56;21.70;38.00
4584;DHT22;2304;47.606;12.186;2023-06-14T20:48:01;21.70;38.10
4584;DHT22;2304;47.606;12.186;2023-06-14T20:53:04;21.60;38.40
4584;DHT22;2304;47.606;12.186;2023-06-14T20:58:06;21.50;39.10
4584;DHT22;2304;47.606;12.186;2023-06-14T21:03:08;21.50;39.90
4584;DHT22;2304;47.606;12.186;2023-06-14T21:08:11;21.50;39.20
4584;DHT22;2304;47.606;12.186;2023-06-14T21:13:13;21.50;40.40
4584;DHT22;2304;47.606;12.186;2023-06-14T21:18:16;21.50;40.50
4584;DHT22;2304;47.606;12.186;2023-06-14T21:23:19;21.40;41.20
4584;DHT22;2304;47.606;12.186;2023-06-14T21:28:22;21.40;41.60
4584;DHT22;2304;47.606;12.186;2023-06-14T21:33:24;21.40;41.40
4584;DHT22;2304;47.606;12.186;2023-06-14T21:38:27;21.30;42.00
4584;DHT22;2304;47.606;12.186;2023-06-14T21:43:29;21.20;42.10
4584;DHT22;2304;47.606;12.186;2023-06-14T21:48:31;21.20;42.70
4584;DHT22;2304;47.606;12.186;2023-06-14T21:53:34;21.10;42.70
4584;DHT22;2304;47.606;12.186;2023-06-14T21:58:36;21.10;43.00
4584;DHT22;2304;47.606;12.186;2023-06-14T22:03:38;20.90;43.30
4584;DHT22;2304;47.606;12.186;2023-06-14T22:08:41;20.80;43.50
4584;DHT22;2304;47.606;12.186;2023-06-14T22:13:43;20.80;43.90
4584;DHT22;2304;47.606;12.186;2023-06-14T22:18:45;20.80;44.30
4584;DHT22;2304;47.606;12.186;2023-06-14T22:23:48;20.80;44.30
4584;DHT22;2304;47.606;12.186;2023-06-14T22:28:50;20.70;44.90
4584;DHT22;2304;47.606;12.186;2023-06-14T22:33:51;20.60;44.70
4584;DHT22;2304;47.606;12.186;2023-06-14T22:38:55;20.60;45.20
4584;DHT22;2304;47.606;12.186;2023-06-14T22:43:57;20.30;45.50
4584;DHT22;2304;47.606;12.186;2023-06-14T22:48:59;20.30;46.20
4584;DHT22;2304;47.606;12.186;2023-06-14T22:54:03;20.30;46.40
4584;DHT22;2304;47.606;12.186;2023-06-14T22:59:05;20.20;44.60
4584;DHT22;2304;47.606;12.186;2023-06-14T23:04:08;20.10;44.80
4584;DHT22;2304;47.606;12.186;2023-06-14T23:09:11;19.90;44.60
4584;DHT22;2304;47.606;12.186;2023-06-14T23:14:13;19.80;44.70
4584;DHT22;2304;47.606;12.186;2023-06-14T23:19:15;19.60;45.80
4584;DHT22;2304;47.606;12.186;2023-06-14T23:24:19;19.50;46.40
4584;DHT22;2304;47.606;12.186;2023-06-14T23:29:21;19.40;48.20
4584;DHT22;2304;47.606;12.186;2023-06-14T23:34:23;19.30;47.50
4584;DHT22;2304;47.606;12.186;2023-06-14T23:39:27;19.20;47.70
4584;DHT22;2304;47.606;12.186;2023-06-14T23:44:29;19.10;47.40
4584;DHT22;2304;47.606;12.186;2023-06-14T23:49:37;19.00;48.00
4584;DHT22;2304;47.606;12.186;2023-06-14T23:54:43;18.90;48.80
4584;DHT22;2304;47.606;12.186;2023-06-14T23:59:46;18.70;49.00
